sensor_id;sensor_type;location;lat;lon;timestamp;P1;durP1;ratioP1;P2;durP2;ratioP2
70342;SDS011;57767;42.068;24.752;2022-12-18T00:00:58;37.38;;;25.75;;
70342;SDS011;57767;42.068;24.752;2022-12-18T00:02:00;36.22;;;24.13;;
70342;SDS011;57767;42.068;24.752;2022-12-18T00:03:02;45.28;;;27.73;;
70342;SDS011;57767;42.068;24.752;2022-12-18T00:04:05;47.78;;;31.05;;
70342;SDS011;57767;42.068;24.752;2022-12-18T00:05:09;44.22;;;29.63;;
70342;SDS011;57767;42.068;24.752;2022-12-18T00:06:11;43.17;;;29.20;;
70342;SDS011;57767;42.068;24.752;2022-12-18T00:07:13;42.78;;;27.08;;
70342;SDS011;57767;42.068;24.752;2022-12-18T00:08:15;35.80;;;25.08;;
70342;SDS011;57767;42.068;24.752;2022-12-18T00:09:17;41.13;;;24.40;;
70342;SDS011;57767;42.068;24.752;2022-12-18T00:10:19;35.60;;;24.73;;
70342;SDS011;57767;42.068;24.752;2022-12-18T00:11:21;38.95;;;24.63;;
70342;SDS011;57767;42.068;24.752;2022-12-18T00:12:24;32.45;;;22.00;;
70342;SDS011;57767;42.068;24.752;2022-12-18T00:13:30;31.90;;;20.67;;
70342;SDS011;57767;42.068;24.752;2022-12-18T00:14:32;33.33;;;21.25;;
70342;SDS011;57767;42.068;24.752;2022-12-18T00:15:34;33.30;;;22.27;;
70342;SDS011;57767;42.068;24.752;2022-12-18T00:16:37;32.38;;;19.30;;
70342;SDS011;57767;42.068;24.752;2022-12-18T00:17:38;27.67;;;19.08;;
70342;SDS011;57767;42.068;24.752;2022-12-18T00:18:40;32.30;;;20.77;;
70342;SDS011;57767;42.068;24.752;2022-12-18T00:19:43;42.30;;;24.75;;
70342;SDS011;57767;42.068;24.752;2022-12-18T00:20:44;36.80;;;24.92;;
70342;SDS011;57767;42.068;24.752;2022-12-18T00:21:46;43.85;;;27.20;;
70342;SDS011;57767;42.068;24.752;2022-12-18T00:22:48;36.78;;;24.25;;
70342;SDS011;57767;42.068;24.752;2022-12-18T00:23:50;34.95;;;23.50;;
70342;SDS011;57767;42.068;24.752;2022-12-18T00:24:51;40.17;;;25.92;;
70342;SDS011;57767;42.068;24.752;2022-12-18T00:25:53;38.92;;;26.48;;
70342;SDS011;57767;42.068;24.752;2022-12-18T00:26:55;49.10;;;28.48;;
70342;SDS011;57767;42.068;24.752;2022-12-18T00:27:57;46.58;;;29.73;;
70342;SDS011;57767;42.068;24.752;2022-12-18T00:28:59;44.60;;;27.77;;
70342;SDS011;57767;42.068;24.752;2022-12-18T00:30:02;43.10;;;26.65;;
70342;SDS011;57767;42.068;24.752;2022-12-18T00:31:06;40.28;;;25.92;;
70342;SDS011;57767;42.068;24.752;2022-12-18T00:32:09;36.35;;;24.67;;
70342;SDS011;57767;42.068;24.752;2022-12-18T00:33:11;40.63;;;25.40;;
70342;SDS011;57767;42.068;24.752;2022-12-18T00:34:12;51.15;;;28.70;;
70342;SDS011;57767;42.068;24.752;2022-12-18T00:35:14;221.65;;;84.65;;
70342;SDS011;57767;42.068;24.752;2022-12-18T00:36:20;222.82;;;91.95;;
70342;SDS011;57767;42.068;24.752;2022-12-18T00:37:23;57.17;;;31.10;;
70342;SDS011;57767;42.068;24.752;2022-12-18T00:38:25;52.38;;;32.53;;
70342;SDS011;57767;42.068;24.752;2022-12-18T00:39:27;74.95;;;40.17;;
70342;SDS011;57767;42.068;24.752;2022-12-18T00:40:29;75.05;;;40.40;;
70342;SDS011;57767;42.068;24.752;2022-12-18T00:41:30;79.60;;;38.50;;
70342;SDS011;57767;42.068;24.752;2022-12-18T00:42:51;44.35;;;28.27;;
70342;SDS011;57767;42.068;24.752;2022-12-18T00:43:59;44.33;;;27.02;;
70342;SDS011;57767;42.068;24.752;2022-12-18T00:45:01;48.13;;;28.25;;
70342;SDS011;57767;42.068;24.752;2022-12-18T00:46:10;36.78;;;23.95;;
70342;SDS011;57767;42.068;24.752;2022-12-18T00:47:12;35.03;;;24.33;;
70342;SDS011;57767;42.068;24.752;2022-12-18T00:48:14;35.15;;;25.02;;
70342;SDS011;57767;42.068;24.752;2022-12-18T00:49:16;32.22;;;23.05;;
70342;SDS011;57767;42.068;24.752;2022-12-18T00:50:20;35.38;;;23.65;;
70342;SDS011;57767;42.068;24.752;2022-12-18T00:51:22;38.25;;;24.35;;
70342;SDS011;57767;42.068;24.752;2022-12-18T00:52:25;32.42;;;21.85;;
70342;SDS011;57767;42.068;24.752;2022-12-18T00:53:26;36.33;;;22.65;;
70342;SDS011;57767;42.068;24.752;2022-12-18T00:54:28;35.80;;;22.50;;
70342;SDS011;57767;42.068;24.752;2022-12-18T00:55:30;36.22;;;22.88;;
70342;SDS011;57767;42.068;24.752;2022-12-18T00:56:34;33.22;;;24.08;;
70342;SDS011;57767;42.068;24.752;2022-12-18T00:57:45;35.08;;;26.23;;
70342;SDS011;57767;42.068;24.752;2022-12-18T00:58:47;40.42;;;25.77;;
70342;SDS011;57767;42.068;24.752;2022-12-18T00:59:49;35.00;;;24.20;;
70342;SDS011;57767;42.068;24.752;2022-12-18T01:00:51;36.00;;;24.75;;
70342;SDS011;57767;42.068;24.752;2022-12-18T01:01:52;31.83;;;22.95;;
70342;SDS011;57767;42.068;24.752;2022-12-18T01:02:54;31.98;;;22.52;;
70342;SDS011;57767;42.068;24.752;2022-12-18T01:03:56;32.30;;;22.20;;
70342;SDS011;57767;42.068;24.752;2022-12-18T01:04:58;36.30;;;24.20;;
70342;SDS011;57767;42.068;24.752;2022-12-18T01:06:04;35.92;;;23.83;;
70342;SDS011;57767;42.068;24.752;2022-12-18T01:07:07;36.13;;;25.65;;
70342;SDS011;57767;42.068;24.752;2022-12-18T01:08:09;37.63;;;25.13;;
70342;SDS011;57767;42.068;24.752;2022-12-18T01:09:11;36.50;;;25.10;;
70342;SDS011;57767;42.068;24.752;2022-12-18T01:10:13;35.97;;;24.48;;
70342;SDS011;57767;42.068;24.752;2022-12-18T01:11:16;36.67;;;25.02;;
70342;SDS011;57767;42.068;24.752;2022-12-18T01:12:19;38.20;;;24.58;;
70342;SDS011;57767;42.068;24.752;2022-12-18T01:13:20;40.60;;;25.48;;
70342;SDS011;57767;42.068;24.752;2022-12-18T01:14:22;32.25;;;24.63;;
70342;SDS011;57767;42.068;24.752;2022-12-18T01:15:24;50.83;;;33.25;;
70342;SDS011;57767;42.068;24.752;2022-12-18T01:16:26;44.28;;;31.17;;
70342;SDS011;57767;42.068;24.752;2022-12-18T01:17:28;48.97;;;35.15;;
70342;SDS011;57767;42.068;24.752;2022-12-18T01:18:29;44.05;;;30.60;;
70342;SDS011;57767;42.068;24.752;2022-12-18T01:19:31;33.40;;;22.77;;
70342;SDS011;57767;42.068;24.752;2022-12-18T01:20:33;32.90;;;22.10;;
70342;SDS011;57767;42.068;24.752;2022-12-18T01:21:35;32.45;;;19.05;;
70342;SDS011;57767;42.068;24.752;2022-12-18T01:22:36;22.85;;;15.90;;
70342;SDS011;57767;42.068;24.752;2022-12-18T01:23:38;24.70;;;16.55;;
70342;SDS011;57767;42.068;24.752;2022-12-18T01:24:41;25.30;;;17.88;;
70342;SDS011;57767;42.068;24.752;2022-12-18T01:25:42;29.70;;;19.15;;
70342;SDS011;57767;42.068;24.752;2022-12-18T01:26:44;23.92;;;16.77;;
70342;SDS011;57767;42.068;24.752;2022-12-18T01:27:46;27.70;;;17.17;;
70342;SDS011;57767;42.068;24.752;2022-12-18T01:28:47;22.83;;;14.95;;
70342;SDS011;57767;42.068;24.752;2022-12-18T01:29:49;27.52;;;17.00;;
70342;SDS011;57767;42.068;24.752;2022-12-18T01:30:51;25.05;;;16.42;;
70342;SDS011;57767;42.068;24.752;2022-12-18T01:31:54;21.98;;;15.32;;
70342;SDS011;57767;42.068;24.752;2022-12-18T01:32:57;18.15;;;12.52;;
70342;SDS011;57767;42.068;24.752;2022-12-18T01:34:02;17.20;;;13.05;;
70342;SDS011;57767;42.068;24.752;2022-12-18T01:35:05;19.50;;;12.57;;
70342;SDS011;57767;42.068;24.752;2022-12-18T01:36:07;24.35;;;16.25;;
70342;SDS011;57767;42.068;24.752;2022-12-18T01:37:15;45.65;;;25.48;;
70342;SDS011;57767;42.068;24.752;2022-12-18T01:38:17;33.28;;;19.65;;
70342;SDS011;57767;42.068;24.752;2022-12-18T01:39:19;26.98;;;17.75;;
70342;SDS011;57767;42.068;24.752;2022-12-18T01:40:20;26.45;;;18.27;;
70342;SDS011;57767;42.068;24.752;2022-12-18T01:41:23;28.35;;;18.67;;
70342;SDS011;57767;42.068;24.752;2022-12-18T01:42:27;27.30;;;20.92;;
70342;SDS011;57767;42.068;24.752;2022-12-18T01:43:49;25.42;;;20.88;;
70342;SDS011;57767;42.068;24.752;2022-12-18T01:46:02;18.08;;;13.32;;
70342;SDS011;57767;42.068;24.752;2022-12-18T01:47:04;21.10;;;13.88;;
70342;SDS011;57767;42.068;24.752;2022-12-18T01:48:06;21.65;;;16.58;;
70342;SDS011;57767;42.068;24.752;2022-12-18T01:49:10;22.70;;;16.50;;
70342;SDS011;57767;42.068;24.752;2022-12-18T01:50:19;18.40;;;14.50;;
70342;SDS011;57767;42.068;24.752;2022-12-18T01:51:23;21.73;;;13.32;;
70342;SDS011;57767;42.068;24.752;2022-12-18T01:52:28;19.42;;;12.65;;
70342;SDS011;57767;42.068;24.752;2022-12-18T01:53:32;17.92;;;13.18;;
70342;SDS011;57767;42.068;24.752;2022-12-18T01:54:33;23.77;;;14.60;;
70342;SDS011;57767;42.068;24.752;2022-12-18T01:55:40;20.75;;;14.65;;
70342;SDS011;57767;42.068;24.752;2022-12-18T01:56:46;19.15;;;13.68;;
70342;SDS011;57767;42.068;24.752;2022-12-18T01:57:47;21.38;;;13.80;;
70342;SDS011;57767;42.068;24.752;2022-12-18T02:00:02;19.80;;;13.38;;
70342;SDS011;57767;42.068;24.752;2022-12-18T02:01:09;18.42;;;13.00;;
70342;SDS011;57767;42.068;24.752;2022-12-18T02:02:11;16.67;;;12.63;;
70342;SDS011;57767;42.068;24.752;2022-12-18T02:03:14;20.85;;;12.60;;
70342;SDS011;57767;42.068;24.752;2022-12-18T02:08:16;18.45;;;12.95;;
70342;SDS011;57767;42.068;24.752;2022-12-18T02:09:45;15.95;;;11.60;;
70342;SDS011;57767;42.068;24.752;2022-12-18T02:12:52;17.90;;;11.70;;
70342;SDS011;57767;42.068;24.752;2022-12-18T02:16:02;15.95;;;10.55;;
70342;SDS011;57767;42.068;24.752;2022-12-18T02:17:01;17.33;;;10.88;;
70342;SDS011;57767;42.068;24.752;2022-12-18T02:18:24;16.52;;;11.23;;
70342;SDS011;57767;42.068;24.752;2022-12-18T02:21:07;16.10;;;11.93;;
70342;SDS011;57767;42.068;24.752;2022-12-18T02:26:52;13.80;;;9.90;;
70342;SDS011;57767;42.068;24.752;2022-12-18T02:28:00;16.05;;;10.88;;
70342;SDS011;57767;42.068;24.752;2022-12-18T02:29:12;12.80;;;10.15;;
70342;SDS011;57767;42.068;24.752;2022-12-18T02:30:17;14.57;;;10.00;;
70342;SDS011;57767;42.068;24.752;2022-12-18T02:31:23;16.55;;;10.35;;
70342;SDS011;57767;42.068;24.752;2022-12-18T02:32:30;15.93;;;10.57;;
70342;SDS011;57767;42.068;24.752;2022-12-18T02:33:35;12.60;;;10.52;;
70342;SDS011;57767;42.068;24.752;2022-12-18T02:34:39;17.10;;;11.55;;
70342;SDS011;57767;42.068;24.752;2022-12-18T02:35:41;15.90;;;11.25;;
70342;SDS011;57767;42.068;24.752;2022-12-18T02:36:46;17.73;;;11.65;;
70342;SDS011;57767;42.068;24.752;2022-12-18T02:37:51;15.90;;;12.40;;
70342;SDS011;57767;42.068;24.752;2022-12-18T02:38:55;19.75;;;14.18;;
70342;SDS011;57767;42.068;24.752;2022-12-18T02:40:00;16.55;;;12.77;;
70342;SDS011;57767;42.068;24.752;2022-12-18T02:41:04;15.07;;;12.75;;
70342;SDS011;57767;42.068;24.752;2022-12-18T02:42:07;17.30;;;12.57;;
70342;SDS011;57767;42.068;24.752;2022-12-18T02:43:10;17.20;;;12.90;;
70342;SDS011;57767;42.068;24.752;2022-12-18T02:44:13;15.95;;;12.27;;
70342;SDS011;57767;42.068;24.752;2022-12-18T02:45:15;18.08;;;12.77;;
70342;SDS011;57767;42.068;24.752;2022-12-18T02:46:51;18.75;;;13.23;;
70342;SDS011;57767;42.068;24.752;2022-12-18T02:47:51;15.65;;;12.60;;
70342;SDS011;57767;42.068;24.752;2022-12-18T02:48:54;18.90;;;13.07;;
70342;SDS011;57767;42.068;24.752;2022-12-18T02:51:29;20.42;;;13.75;;
70342;SDS011;57767;42.068;24.752;2022-12-18T02:57:46;16.13;;;12.60;;
70342;SDS011;57767;42.068;24.752;2022-12-18T03:01:52;16.85;;;11.93;;
70342;SDS011;57767;42.068;24.752;2022-12-18T03:03:45;17.55;;;13.20;;
70342;SDS011;57767;42.068;24.752;2022-12-18T03:04:54;17.38;;;12.93;;
70342;SDS011;57767;42.068;24.752;2022-12-18T03:06:08;18.77;;;13.52;;
70342;SDS011;57767;42.068;24.752;2022-12-18T03:07:18;22.42;;;14.80;;
70342;SDS011;57767;42.068;24.752;2022-12-18T03:08:28;20.85;;;13.85;;
70342;SDS011;57767;42.068;24.752;2022-12-18T03:09:34;21.88;;;14.30;;
70342;SDS011;57767;42.068;24.752;2022-12-18T03:10:41;18.02;;;13.93;;
70342;SDS011;57767;42.068;24.752;2022-12-18T03:11:48;17.52;;;13.45;;
70342;SDS011;57767;42.068;24.752;2022-12-18T03:13:18;19.15;;;13.45;;
70342;SDS011;57767;42.068;24.752;2022-12-18T03:14:30;22.98;;;14.20;;
70342;SDS011;57767;42.068;24.752;2022-12-18T03:15:36;20.40;;;14.43;;
70342;SDS011;57767;42.068;24.752;2022-12-18T03:16:44;18.50;;;13.50;;
70342;SDS011;57767;42.068;24.752;2022-12-18T03:17:50;21.00;;;13.65;;
70342;SDS011;57767;42.068;24.752;2022-12-18T03:18:59;18.05;;;13.63;;
70342;SDS011;57767;42.068;24.752;2022-12-18T03:20:05;20.73;;;14.15;;
70342;SDS011;57767;42.068;24.752;2022-12-18T03:21:14;17.90;;;12.98;;
70342;SDS011;57767;42.068;24.752;2022-12-18T03:22:20;14.75;;;12.35;;
70342;SDS011;57767;42.068;24.752;2022-12-18T03:23:25;20.27;;;12.40;;
70342;SDS011;57767;42.068;24.752;2022-12-18T03:24:30;20.88;;;13.75;;
70342;SDS011;57767;42.068;24.752;2022-12-18T03:25:34;18.38;;;13.40;;
70342;SDS011;57767;42.068;24.752;2022-12-18T03:26:40;19.95;;;13.52;;
70342;SDS011;57767;42.068;24.752;2022-12-18T03:27:47;18.88;;;12.68;;
70342;SDS011;57767;42.068;24.752;2022-12-18T03:28:53;17.90;;;12.52;;
70342;SDS011;57767;42.068;24.752;2022-12-18T03:30:03;20.05;;;12.23;;
70342;SDS011;57767;42.068;24.752;2022-12-18T03:31:09;20.10;;;12.98;;
70342;SDS011;57767;42.068;24.752;2022-12-18T03:32:21;20.10;;;12.75;;
70342;SDS011;57767;42.068;24.752;2022-12-18T03:33:34;18.15;;;12.40;;
70342;SDS011;57767;42.068;24.752;2022-12-18T03:34:43;19.70;;;13.77;;
70342;SDS011;57767;42.068;24.752;2022-12-18T03:35:47;19.92;;;13.85;;
70342;SDS011;57767;42.068;24.752;2022-12-18T03:36:49;21.55;;;13.73;;
70342;SDS011;57767;42.068;24.752;2022-12-18T03:37:51;16.52;;;13.07;;
70342;SDS011;57767;42.068;24.752;2022-12-18T03:38:53;18.13;;;13.00;;
70342;SDS011;57767;42.068;24.752;2022-12-18T03:39:54;17.00;;;12.00;;
70342;SDS011;57767;42.068;24.752;2022-12-18T03:41:04;19.77;;;12.30;;
70342;SDS011;57767;42.068;24.752;2022-12-18T03:42:19;15.55;;;11.73;;
70342;SDS011;57767;42.068;24.752;2022-12-18T03:45:05;18.85;;;11.85;;
70342;SDS011;57767;42.068;24.752;2022-12-18T03:46:17;19.65;;;11.93;;
70342;SDS011;57767;42.068;24.752;2022-12-18T03:48:51;17.67;;;12.75;;
70342;SDS011;57767;42.068;24.752;2022-12-18T03:49:58;19.42;;;12.38;;
70342;SDS011;57767;42.068;24.752;2022-12-18T03:51:23;16.30;;;11.70;;
70342;SDS011;57767;42.068;24.752;2022-12-18T03:52:40;19.80;;;12.73;;
70342;SDS011;57767;42.068;24.752;2022-12-18T03:54:09;16.55;;;11.73;;
70342;SDS011;57767;42.068;24.752;2022-12-18T03:55:12;17.33;;;12.00;;
70342;SDS011;57767;42.068;24.752;2022-12-18T03:56:15;20.13;;;12.55;;
70342;SDS011;57767;42.068;24.752;2022-12-18T03:57:19;19.17;;;12.45;;
70342;SDS011;57767;42.068;24.752;2022-12-18T03:58:24;18.30;;;12.95;;
70342;SDS011;57767;42.068;24.752;2022-12-18T03:59:27;16.90;;;11.80;;
70342;SDS011;57767;42.068;24.752;2022-12-18T04:00:30;24.38;;;12.88;;
70342;SDS011;57767;42.068;24.752;2022-12-18T04:01:38;19.25;;;12.68;;
70342;SDS011;57767;42.068;24.752;2022-12-18T04:02:44;17.85;;;12.60;;
70342;SDS011;57767;42.068;24.752;2022-12-18T04:03:50;16.45;;;11.98;;
70342;SDS011;57767;42.068;24.752;2022-12-18T04:04:53;16.20;;;12.30;;
70342;SDS011;57767;42.068;24.752;2022-12-18T04:05:59;17.38;;;12.48;;
70342;SDS011;57767;42.068;24.752;2022-12-18T04:07:02;18.83;;;13.55;;
70342;SDS011;57767;42.068;24.752;2022-12-18T04:08:05;18.73;;;13.35;;
70342;SDS011;57767;42.068;24.752;2022-12-18T04:09:07;18.75;;;14.18;;
70342;SDS011;57767;42.068;24.752;2022-12-18T04:10:09;18.30;;;13.93;;
70342;SDS011;57767;42.068;24.752;2022-12-18T04:11:13;16.95;;;12.57;;
70342;SDS011;57767;42.068;24.752;2022-12-18T04:12:14;21.83;;;12.60;;
70342;SDS011;57767;42.068;24.752;2022-12-18T04:13:23;17.00;;;12.80;;
70342;SDS011;57767;42.068;24.752;2022-12-18T04:14:28;17.45;;;12.43;;
70342;SDS011;57767;42.068;24.752;2022-12-18T04:15:31;17.77;;;12.43;;
70342;SDS011;57767;42.068;24.752;2022-12-18T04:16:35;16.00;;;12.13;;
70342;SDS011;57767;42.068;24.752;2022-12-18T04:17:37;17.95;;;12.65;;
70342;SDS011;57767;42.068;24.752;2022-12-18T04:18:40;16.08;;;11.65;;
70342;SDS011;57767;42.068;24.752;2022-12-18T04:19:42;16.92;;;11.10;;
70342;SDS011;57767;42.068;24.752;2022-12-18T04:20:43;13.90;;;10.73;;
70342;SDS011;57767;42.068;24.752;2022-12-18T04:21:45;16.45;;;10.20;;
70342;SDS011;57767;42.068;24.752;2022-12-18T04:22:47;15.23;;;11.02;;
70342;SDS011;57767;42.068;24.752;2022-12-18T04:23:49;14.05;;;10.80;;
70342;SDS011;57767;42.068;24.752;2022-12-18T04:24:51;14.57;;;10.80;;
70342;SDS011;57767;42.068;24.752;2022-12-18T04:25:52;16.33;;;11.55;;
70342;SDS011;57767;42.068;24.752;2022-12-18T04:26:54;14.93;;;11.15;;
70342;SDS011;57767;42.068;24.752;2022-12-18T04:27:56;14.25;;;10.02;;
70342;SDS011;57767;42.068;24.752;2022-12-18T04:28:57;14.02;;;11.07;;
70342;SDS011;57767;42.068;24.752;2022-12-18T04:29:59;14.98;;;11.15;;
70342;SDS011;57767;42.068;24.752;2022-12-18T04:31:01;15.13;;;11.77;;
70342;SDS011;57767;42.068;24.752;2022-12-18T04:32:03;16.67;;;11.82;;
70342;SDS011;57767;42.068;24.752;2022-12-18T04:33:12;15.70;;;10.82;;
70342;SDS011;57767;42.068;24.752;2022-12-18T04:34:14;14.38;;;10.55;;
70342;SDS011;57767;42.068;24.752;2022-12-18T04:35:16;19.00;;;11.68;;
70342;SDS011;57767;42.068;24.752;2022-12-18T04:36:18;19.35;;;12.98;;
70342;SDS011;57767;42.068;24.752;2022-12-18T04:37:20;20.20;;;13.38;;
70342;SDS011;57767;42.068;24.752;2022-12-18T04:38:22;17.90;;;12.80;;
70342;SDS011;57767;42.068;24.752;2022-12-18T04:39:23;17.13;;;11.38;;
70342;SDS011;57767;42.068;24.752;2022-12-18T04:40:26;17.48;;;12.00;;
70342;SDS011;57767;42.068;24.752;2022-12-18T04:41:27;14.93;;;11.80;;
70342;SDS011;57767;42.068;24.752;2022-12-18T04:42:29;15.38;;;11.88;;
70342;SDS011;57767;42.068;24.752;2022-12-18T04:43:31;14.63;;;11.60;;
70342;SDS011;57767;42.068;24.752;2022-12-18T04:44:34;14.55;;;11.23;;
70342;SDS011;57767;42.068;24.752;2022-12-18T04:45:35;15.27;;;11.35;;
70342;SDS011;57767;42.068;24.752;2022-12-18T04:46:37;16.45;;;11.13;;
70342;SDS011;57767;42.068;24.752;2022-12-18T04:47:39;15.07;;;11.32;;
70342;SDS011;57767;42.068;24.752;2022-12-18T04:48:41;14.68;;;11.45;;
70342;SDS011;57767;42.068;24.752;2022-12-18T04:49:42;18.08;;;11.63;;
70342;SDS011;57767;42.068;24.752;2022-12-18T04:50:44;15.63;;;11.07;;
70342;SDS011;57767;42.068;24.752;2022-12-18T04:51:46;17.35;;;12.32;;
70342;SDS011;57767;42.068;24.752;2022-12-18T04:52:47;18.02;;;11.82;;
70342;SDS011;57767;42.068;24.752;2022-12-18T04:53:49;16.40;;;12.07;;
70342;SDS011;57767;42.068;24.752;2022-12-18T04:54:51;15.38;;;11.82;;
70342;SDS011;57767;42.068;24.752;2022-12-18T04:56:02;16.00;;;12.20;;
70342;SDS011;57767;42.068;24.752;2022-12-18T04:57:11;18.10;;;13.00;;
70342;SDS011;57767;42.068;24.752;2022-12-18T04:58:13;18.95;;;12.68;;
70342;SDS011;57767;42.068;24.752;2022-12-18T04:59:15;17.35;;;11.93;;
70342;SDS011;57767;42.068;24.752;2022-12-18T05:00:17;16.20;;;11.38;;
70342;SDS011;57767;42.068;24.752;2022-12-18T05:01:19;15.55;;;11.90;;
70342;SDS011;57767;42.068;24.752;2022-12-18T05:02:21;19.33;;;12.23;;
70342;SDS011;57767;42.068;24.752;2022-12-18T05:03:22;14.70;;;11.32;;
70342;SDS011;57767;42.068;24.752;2022-12-18T05:04:24;24.23;;;19.27;;
70342;SDS011;57767;42.068;24.752;2022-12-18T05:05:26;21.13;;;15.93;;
70342;SDS011;57767;42.068;24.752;2022-12-18T05:06:28;14.95;;;11.57;;
70342;SDS011;57767;42.068;24.752;2022-12-18T05:07:30;14.10;;;10.63;;
70342;SDS011;57767;42.068;24.752;2022-12-18T05:08:31;15.85;;;10.82;;
70342;SDS011;57767;42.068;24.752;2022-12-18T05:09:34;14.32;;;10.30;;
70342;SDS011;57767;42.068;24.752;2022-12-18T05:10:35;19.00;;;11.07;;
70342;SDS011;57767;42.068;24.752;2022-12-18T05:11:38;13.48;;;10.73;;
70342;SDS011;57767;42.068;24.752;2022-12-18T05:12:40;13.10;;;10.15;;
70342;SDS011;57767;42.068;24.752;2022-12-18T05:14:00;15.70;;;10.25;;
70342;SDS011;57767;42.068;24.752;2022-12-18T05:15:02;14.68;;;10.45;;
70342;SDS011;57767;42.068;24.752;2022-12-18T05:16:04;18.23;;;11.40;;
70342;SDS011;57767;42.068;24.752;2022-12-18T05:17:06;15.75;;;11.65;;
70342;SDS011;57767;42.068;24.752;2022-12-18T05:18:08;14.15;;;10.90;;
70342;SDS011;57767;42.068;24.752;2022-12-18T05:19:10;16.02;;;10.40;;
70342;SDS011;57767;42.068;24.752;2022-12-18T05:20:13;16.25;;;10.77;;
70342;SDS011;57767;42.068;24.752;2022-12-18T05:21:15;14.88;;;11.63;;
70342;SDS011;57767;42.068;24.752;2022-12-18T05:22:16;16.02;;;12.07;;
70342;SDS011;57767;42.068;24.752;2022-12-18T05:23:19;14.52;;;11.45;;
70342;SDS011;57767;42.068;24.752;2022-12-18T05:24:22;14.38;;;11.15;;
70342;SDS011;57767;42.068;24.752;2022-12-18T05:25:23;15.27;;;10.52;;
70342;SDS011;57767;42.068;24.752;2022-12-18T05:26:25;15.90;;;11.43;;
70342;SDS011;57767;42.068;24.752;2022-12-18T05:27:27;14.35;;;11.10;;
70342;SDS011;57767;42.068;24.752;2022-12-18T05:28:29;17.67;;;11.60;;
70342;SDS011;57767;42.068;24.752;2022-12-18T05:29:32;14.55;;;11.13;;
70342;SDS011;57767;42.068;24.752;2022-12-18T05:30:34;12.70;;;10.80;;
70342;SDS011;57767;42.068;24.752;2022-12-18T05:31:35;14.98;;;11.25;;
70342;SDS011;57767;42.068;24.752;2022-12-18T05:32:40;14.73;;;10.52;;
70342;SDS011;57767;42.068;24.752;2022-12-18T05:33:42;17.92;;;11.77;;
70342;SDS011;57767;42.068;24.752;2022-12-18T05:34:44;18.58;;;11.95;;
70342;SDS011;57767;42.068;24.752;2022-12-18T05:35:53;15.90;;;11.65;;
70342;SDS011;57767;42.068;24.752;2022-12-18T05:36:55;19.55;;;12.13;;
70342;SDS011;57767;42.068;24.752;2022-12-18T05:37:57;16.60;;;10.82;;
70342;SDS011;57767;42.068;24.752;2022-12-18T05:38:59;17.77;;;11.95;;
70342;SDS011;57767;42.068;24.752;2022-12-18T05:40:02;13.23;;;10.80;;
70342;SDS011;57767;42.068;24.752;2022-12-18T05:41:06;14.85;;;11.30;;
70342;SDS011;57767;42.068;24.752;2022-12-18T05:42:08;16.42;;;10.82;;
70342;SDS011;57767;42.068;24.752;2022-12-18T05:43:11;14.85;;;10.55;;
70342;SDS011;57767;42.068;24.752;2022-12-18T05:44:19;18.77;;;10.23;;
70342;SDS011;57767;42.068;24.752;2022-12-18T05:45:21;14.65;;;10.10;;
70342;SDS011;57767;42.068;24.752;2022-12-18T05:46:22;13.77;;;10.57;;
70342;SDS011;57767;42.068;24.752;2022-12-18T05:47:26;14.68;;;10.02;;
70342;SDS011;57767;42.068;24.752;2022-12-18T05:48:28;15.27;;;10.65;;
70342;SDS011;57767;42.068;24.752;2022-12-18T05:49:30;16.02;;;10.90;;
70342;SDS011;57767;42.068;24.752;2022-12-18T05:50:38;14.75;;;11.07;;
70342;SDS011;57767;42.068;24.752;2022-12-18T05:51:41;14.88;;;11.23;;
70342;SDS011;57767;42.068;24.752;2022-12-18T05:52:42;15.43;;;10.98;;
70342;SDS011;57767;42.068;24.752;2022-12-18T05:53:44;14.48;;;11.68;;
70342;SDS011;57767;42.068;24.752;2022-12-18T05:54:46;14.20;;;11.70;;
70342;SDS011;57767;42.068;24.752;2022-12-18T05:55:48;16.00;;;11.50;;
70342;SDS011;57767;42.068;24.752;2022-12-18T05:56:50;17.83;;;12.00;;
70342;SDS011;57767;42.068;24.752;2022-12-18T05:57:52;17.13;;;12.05;;
70342;SDS011;57767;42.068;24.752;2022-12-18T05:58:53;16.38;;;12.38;;
70342;SDS011;57767;42.068;24.752;2022-12-18T05:59:55;17.08;;;11.98;;
70342;SDS011;57767;42.068;24.752;2022-12-18T06:00:57;18.02;;;11.60;;
70342;SDS011;57767;42.068;24.752;2022-12-18T06:02:06;17.60;;;11.73;;
70342;SDS011;57767;42.068;24.752;2022-12-18T06:03:10;15.63;;;12.48;;
70342;SDS011;57767;42.068;24.752;2022-12-18T06:04:13;18.30;;;12.00;;
70342;SDS011;57767;42.068;24.752;2022-12-18T06:05:14;17.52;;;11.98;;
70342;SDS011;57767;42.068;24.752;2022-12-18T06:06:18;16.42;;;11.30;;
70342;SDS011;57767;42.068;24.752;2022-12-18T06:07:24;14.85;;;11.35;;
70342;SDS011;57767;42.068;24.752;2022-12-18T06:08:26;16.58;;;10.52;;
70342;SDS011;57767;42.068;24.752;2022-12-18T06:09:28;14.43;;;10.63;;
70342;SDS011;57767;42.068;24.752;2022-12-18T06:10:30;15.60;;;11.85;;
70342;SDS011;57767;42.068;24.752;2022-12-18T06:11:32;16.15;;;10.70;;
70342;SDS011;57767;42.068;24.752;2022-12-18T06:12:34;16.55;;;10.82;;
70342;SDS011;57767;42.068;24.752;2022-12-18T06:13:36;17.75;;;12.02;;
70342;SDS011;57767;42.068;24.752;2022-12-18T06:14:38;17.52;;;11.35;;
70342;SDS011;57767;42.068;24.752;2022-12-18T06:15:40;13.02;;;10.40;;
70342;SDS011;57767;42.068;24.752;2022-12-18T06:16:42;13.18;;;10.25;;
70342;SDS011;57767;42.068;24.752;2022-12-18T06:17:44;12.93;;;9.27;;
70342;SDS011;57767;42.068;24.752;2022-12-18T06:18:46;16.02;;;9.90;;
70342;SDS011;57767;42.068;24.752;2022-12-18T06:19:48;16.13;;;10.00;;
70342;SDS011;57767;42.068;24.752;2022-12-18T06:20:56;10.95;;;8.65;;
70342;SDS011;57767;42.068;24.752;2022-12-18T06:21:59;12.13;;;9.13;;
70342;SDS011;57767;42.068;24.752;2022-12-18T06:23:01;19.35;;;13.10;;
70342;SDS011;57767;42.068;24.752;2022-12-18T06:24:02;13.65;;;8.15;;
70342;SDS011;57767;42.068;24.752;2022-12-18T06:25:04;11.25;;;7.07;;
70342;SDS011;57767;42.068;24.752;2022-12-18T06:26:09;10.70;;;7.40;;
70342;SDS011;57767;42.068;24.752;2022-12-18T06:27:12;10.45;;;7.78;;
70342;SDS011;57767;42.068;24.752;2022-12-18T06:28:14;13.05;;;7.22;;
70342;SDS011;57767;42.068;24.752;2022-12-18T06:29:16;10.82;;;6.35;;
70342;SDS011;57767;42.068;24.752;2022-12-18T06:30:18;9.38;;;5.80;;
70342;SDS011;57767;42.068;24.752;2022-12-18T06:31:20;9.15;;;5.43;;
70342;SDS011;57767;42.068;24.752;2022-12-18T06:32:21;5.95;;;4.95;;
70342;SDS011;57767;42.068;24.752;2022-12-18T06:33:25;5.82;;;4.60;;
70342;SDS011;57767;42.068;24.752;2022-12-18T06:34:28;6.78;;;5.35;;
70342;SDS011;57767;42.068;24.752;2022-12-18T06:35:31;6.60;;;4.88;;
70342;SDS011;57767;42.068;24.752;2022-12-18T06:36:33;6.32;;;5.03;;
70342;SDS011;57767;42.068;24.752;2022-12-18T06:37:35;10.85;;;3.92;;
70342;SDS011;57767;42.068;24.752;2022-12-18T06:38:37;4.93;;;4.20;;
70342;SDS011;57767;42.068;24.752;2022-12-18T06:39:40;5.03;;;4.40;;
70342;SDS011;57767;42.068;24.752;2022-12-18T06:40:42;7.20;;;4.57;;